This is the latest recevied weather packets stored in our database for station/object IK1AMC-3. If no packets are shown the sender has not sent any weather packets the latest 10 day(s).
| Time | Temp. | Humidity | Pressure | Rain* | Wind** | Luminosity | Snow |
|---|---|---|---|---|---|---|---|
| 1777745785 | 19.44° C | 50% | 1020.2 hPa | - | - | - | - |
| 1777744584 | 20° C | 47% | 1020.2 hPa | - | - | - | - |
| 1777742181 | 21.11° C | 33% | 1020.2 hPa | - | - | - | - |
| 1777740980 | 21.11° C | 34% | 1020.3 hPa | - | - | - | - |
| 1777739778 | 21.67° C | 30% | 1020.3 hPa | - | - | - | - |
| 1777738577 | 22.22° C | 29% | 1020.5 hPa | - | - | - | - |
| 1777737376 | 22.22° C | 29% | 1020.5 hPa | - | - | - | - |
| 1777736175 | 23.33° C | 28% | 1020.8 hPa | - | - | - | - |
| 1777734974 | 23.33° C | 29% | 1021.1 hPa | - | - | - | - |
| 1777733772 | 22.78° C | 28% | 1021.2 hPa | - | - | - | - |
| 1777732571 | 23.33° C | 28% | 1021.5 hPa | - | - | - | - |
| 1777731370 | 22.78° C | 29% | 1021.8 hPa | - | - | - | - |
| 1777730168 | 22.78° C | 29% | 1022 hPa | - | - | - | - |
| 1777728967 | 23.33° C | 30% | 1022.4 hPa | - | - | - | - |
| 1777727766 | 23.33° C | 29% | 1022.6 hPa | - | - | - | - |
| 1777726565 | 22.22° C | 30% | 1022.7 hPa | - | - | - | - |
| 1777725363 | 22.78° C | 30% | 1023 hPa | - | - | - | - |
| 1777724162 | 22.22° C | 33% | 1023.1 hPa | - | - | - | - |
| 1777722961 | 22.22° C | 34% | 1023.4 hPa | - | - | - | - |
| 1777721759 | 22.22° C | 34% | 1023.6 hPa | - | - | - | - |
| 1777720558 | 22.22° C | 33% | 1023.8 hPa | - | - | - | - |
| 1777719357 | 21.11° C | 38% | 1024 hPa | - | - | - | - |
| 1777718155 | 21.11° C | 40% | 1024.2 hPa | - | - | - | - |
| 1777716955 | 21.11° C | 45% | 1024.6 hPa | - | - | - | - |
| 1777715753 | 21.11° C | 37% | 1024.8 hPa | - | - | - | - |
* Rain since midnight (hover to see other rain measurements)
** Current wind speed in m/s (hover to see current wind gust speed)